AUA462 EGLL-LOWW
Flight info
| Callsign | AUA462 |
|---|---|
| Flight time | 1h 43m |
| Altitude | 37000 |
| Route | DET L6 DVR UL9 KONAN DCT KOK UL607 FERDI DCT MATUG DCT GUBAX DCT BARSU DCT EKSOS DCT LULAR DCT RUDAP DCT BUDEX BUDEX2W |
| Aircraft | A320/M-SDE3FGHIRWY/LB1 |
Departure
| Time | 2026-04-25 18:52 |
|---|---|
| Airport | London Heathrow Airport (EGLL) |
Arrival
| Time | 2026-04-25 20:35 |
|---|---|
| Airport | Vienna International Airport (LOWW) |
| Time | Latitude | Longitude | Altitude | Speed | Heading |
|---|---|---|---|---|---|
| 2026-04-25 18:32 | 51.47182 | -0.48247 | 88 ft | 0 kts | 89° |
| 2026-04-25 18:41 | 51.47182 | -0.48259 | 87 ft | 4 kts | 90° |
| 2026-04-25 18:41 | 51.47183 | -0.48302 | 89 ft | 4 kts | 101° |
| 2026-04-25 18:41 | 51.47192 | -0.48341 | 90 ft | 4 kts | 131° |
| 2026-04-25 18:41 | 51.47207 | -0.48357 | 91 ft | 0 kts | 179° |
| 2026-04-25 18:46 | 51.47173 | -0.48359 | 89 ft | 9 kts | 181° |
| 2026-04-25 18:46 | 51.47115 | -0.48360 | 88 ft | 9 kts | 180° |
| 2026-04-25 18:46 | 51.47059 | -0.48358 | 89 ft | 7 kts | 179° |
| 2026-04-25 18:46 | 51.47016 | -0.48357 | 90 ft | 5 kts | 179° |
| 2026-04-25 18:47 | 51.46985 | -0.48356 | 92 ft | 4 kts | 179° |
| 2026-04-25 18:47 | 51.46973 | -0.48355 | 89 ft | 0 kts | 179° |
| 2026-04-25 18:47 | 51.46972 | -0.48355 | 89 ft | 1 kts | 179° |
| 2026-04-25 18:48 | 51.46940 | -0.48355 | 89 ft | 7 kts | 180° |
| 2026-04-25 18:48 | 51.46885 | -0.48354 | 92 ft | 9 kts | 179° |
| 2026-04-25 18:48 | 51.46818 | -0.48353 | 92 ft | 10 kts | 180° |
| 2026-04-25 18:48 | 51.46750 | -0.48379 | 94 ft | 11 kts | 221° |
| 2026-04-25 18:49 | 51.46741 | -0.48468 | 93 ft | 1 kts | 281° |
| 2026-04-25 18:49 | 51.46736 | -0.48485 | 92 ft | 1 kts | 219° |
| 2026-04-25 18:49 | 51.46716 | -0.48484 | 93 ft | 8 kts | 175° |
| 2026-04-25 18:49 | 51.46651 | -0.48471 | 95 ft | 10 kts | 174° |
| 2026-04-25 18:50 | 51.46565 | -0.48466 | 96 ft | 13 kts | 180° |
| 2026-04-25 18:50 | 51.46486 | -0.48428 | 96 ft | 12 kts | 126° |
| 2026-04-25 18:50 | 51.46476 | -0.48311 | 94 ft | 10 kts | 91° |
| 2026-04-25 18:50 | 51.46476 | -0.48296 | 94 ft | 0 kts | 90° |
| 2026-04-25 18:51 | 51.46478 | -0.48254 | 94 ft | 19 kts | 86° |
| 2026-04-25 18:51 | 51.46481 | -0.48137 | 92 ft | 46 kts | 88° |
| 2026-04-25 18:51 | 51.46487 | -0.46243 | 93 ft | 147 kts | 89° |
| 2026-04-25 18:51 | 51.46484 | -0.44394 | 238 ft | 177 kts | 91° |
| 2026-04-25 18:52 | 51.46397 | -0.42372 | 661 ft | 191 kts | 101° |
| 2026-04-25 18:52 | 51.45928 | -0.40354 | 1295 ft | 195 kts | 117° |
| 2026-04-25 18:52 | 51.45226 | -0.38428 | 1811 ft | 205 kts | 120° |
| 2026-04-25 18:52 | 51.44443 | -0.36387 | 2196 ft | 225 kts | 121° |
| 2026-04-25 18:53 | 51.43699 | -0.34093 | 2737 ft | 236 kts | 106° |
| 2026-04-25 18:53 | 51.43265 | -0.31537 | 3517 ft | 239 kts | 104° |
| 2026-04-25 18:53 | 51.42857 | -0.28888 | 4123 ft | 254 kts | 103° |
| 2026-04-25 18:53 | 51.42449 | -0.26075 | 4851 ft | 263 kts | 102° |
| 2026-04-25 18:54 | 51.41651 | -0.20219 | 5925 ft | 273 kts | 101° |
| 2026-04-25 18:54 | 51.41249 | -0.17233 | 6004 ft | 273 kts | 101° |
| 2026-04-25 18:54 | 51.40853 | -0.14315 | 6016 ft | 273 kts | 101° |
| 2026-04-25 18:55 | 51.40448 | -0.11347 | 6017 ft | 273 kts | 101° |
| 2026-04-25 18:55 | 51.40039 | -0.08380 | 6015 ft | 273 kts | 101° |
| 2026-04-25 18:55 | 51.39628 | -0.05416 | 6025 ft | 274 kts | 101° |
| 2026-04-25 18:55 | 51.39211 | -0.02414 | 6735 ft | 277 kts | 101° |
| 2026-04-25 18:56 | 51.38788 | 0.00604 | 7587 ft | 280 kts | 101° |
| 2026-04-25 18:56 | 51.38362 | 0.03672 | 8399 ft | 284 kts | 101° |
| 2026-04-25 18:56 | 51.37931 | 0.06779 | 9206 ft | 289 kts | 101° |
| 2026-04-25 18:56 | 51.37490 | 0.09939 | 10014 ft | 293 kts | 102° |
| 2026-04-25 18:57 | 51.37036 | 0.13171 | 10553 ft | 307 kts | 102° |
| 2026-04-25 18:57 | 51.36552 | 0.16631 | 10812 ft | 330 kts | 102° |
| 2026-04-25 18:57 | 51.36038 | 0.20284 | 11015 ft | 352 kts | 102° |
| 2026-04-25 18:57 | 51.35854 | 0.21581 | 11161 ft | 356 kts | 102° |
| 2026-04-25 18:58 | 51.34930 | 0.28095 | 12200 ft | 366 kts | 102° |
| 2026-04-25 18:58 | 51.33794 | 0.36124 | 13564 ft | 374 kts | 102° |
| 2026-04-25 18:58 | 51.33212 | 0.40207 | 14196 ft | 379 kts | 102° |
| 2026-04-25 18:59 | 51.32018 | 0.48511 | 15425 ft | 387 kts | 102° |
| 2026-04-25 18:59 | 51.30808 | 0.56903 | 16618 ft | 394 kts | 102° |
| 2026-04-25 19:00 | 51.29459 | 0.65466 | 17772 ft | 401 kts | 105° |
| 2026-04-25 19:00 | 51.28675 | 0.69768 | 18348 ft | 405 kts | 106° |
| 2026-04-25 19:01 | 51.27012 | 0.78458 | 19370 ft | 413 kts | 106° |
| 2026-04-25 19:01 | 51.26171 | 0.82864 | 19861 ft | 417 kts | 106° |
| 2026-04-25 19:01 | 51.25335 | 0.87312 | 20346 ft | 420 kts | 106° |
| 2026-04-25 19:01 | 51.24501 | 0.91806 | 20824 ft | 424 kts | 105° |
| 2026-04-25 19:02 | 51.22824 | 1.00904 | 21776 ft | 431 kts | 106° |
| 2026-04-25 19:02 | 51.21987 | 1.05448 | 22229 ft | 434 kts | 106° |
| 2026-04-25 19:02 | 51.21130 | 1.10082 | 22680 ft | 438 kts | 106° |
| 2026-04-25 19:03 | 51.19966 | 1.16337 | 23272 ft | 442 kts | 106° |
| 2026-04-25 19:03 | 51.18491 | 1.24184 | 23942 ft | 447 kts | 106° |
| 2026-04-25 19:03 | 51.17587 | 1.28944 | 24293 ft | 450 kts | 107° |
| 2026-04-25 19:04 | 51.16130 | 1.38657 | 24986 ft | 453 kts | 95° |
| 2026-04-25 19:04 | 51.15890 | 1.43605 | 25326 ft | 455 kts | 94° |
| 2026-04-25 19:05 | 51.15424 | 1.53670 | 26047 ft | 457 kts | 94° |
| 2026-04-25 19:05 | 51.14927 | 1.63798 | 26711 ft | 461 kts | 94° |
| 2026-04-25 19:05 | 51.14671 | 1.68896 | 27024 ft | 462 kts | 94° |
| 2026-04-25 19:06 | 51.14412 | 1.74004 | 27333 ft | 464 kts | 94° |
| 2026-04-25 19:06 | 51.13893 | 1.84282 | 27923 ft | 468 kts | 94° |
| 2026-04-25 19:06 | 51.13631 | 1.89456 | 28199 ft | 470 kts | 94° |
| 2026-04-25 19:07 | 51.13096 | 1.99780 | 28740 ft | 473 kts | 94° |
| 2026-04-25 19:07 | 51.12823 | 2.05010 | 29023 ft | 474 kts | 94° |
| 2026-04-25 19:08 | 51.12262 | 2.15490 | 29242 ft | 475 kts | 95° |
| 2026-04-25 19:08 | 51.11977 | 2.20721 | 29239 ft | 475 kts | 95° |
| 2026-04-25 19:09 | 51.11013 | 2.38200 | 29231 ft | 475 kts | 95° |
| 2026-04-25 19:09 | 51.10043 | 2.52118 | 29598 ft | 477 kts | 101° |
| 2026-04-25 19:10 | 51.09432 | 2.57291 | 29950 ft | 475 kts | 101° |
| 2026-04-25 19:10 | 51.08789 | 2.62441 | 30293 ft | 475 kts | 102° |
| 2026-04-25 19:10 | 51.08126 | 2.67581 | 30586 ft | 474 kts | 102° |
| 2026-04-25 19:10 | 51.07458 | 2.72705 | 30875 ft | 473 kts | 102° |
| 2026-04-25 19:11 | 51.06800 | 2.77748 | 31148 ft | 472 kts | 102° |
| 2026-04-25 19:11 | 51.06136 | 2.82859 | 31451 ft | 472 kts | 102° |
| 2026-04-25 19:11 | 51.05479 | 2.87958 | 31719 ft | 471 kts | 102° |
| 2026-04-25 19:11 | 51.04826 | 2.93066 | 31988 ft | 471 kts | 102° |
| 2026-04-25 19:12 | 51.04175 | 2.98165 | 32267 ft | 471 kts | 102° |
| 2026-04-25 19:12 | 51.03525 | 3.03260 | 32564 ft | 470 kts | 102° |
| 2026-04-25 19:12 | 51.02871 | 3.08348 | 32835 ft | 470 kts | 102° |
| 2026-04-25 19:12 | 51.02209 | 3.13423 | 33119 ft | 469 kts | 102° |
| 2026-04-25 19:13 | 51.01543 | 3.18487 | 33405 ft | 468 kts | 102° |
| 2026-04-25 19:13 | 51.00874 | 3.23542 | 33700 ft | 467 kts | 102° |
| 2026-04-25 19:13 | 51.00215 | 3.28518 | 33977 ft | 467 kts | 102° |
| 2026-04-25 19:13 | 50.99556 | 3.33513 | 34243 ft | 466 kts | 102° |
| 2026-04-25 19:14 | 50.98890 | 3.38559 | 34464 ft | 466 kts | 103° |
| 2026-04-25 19:14 | 50.97549 | 3.48624 | 34912 ft | 466 kts | 103° |
| 2026-04-25 19:14 | 50.96874 | 3.53648 | 35128 ft | 466 kts | 103° |
| 2026-04-25 19:15 | 50.96198 | 3.58674 | 35340 ft | 466 kts | 103° |
| 2026-04-25 19:15 | 50.95520 | 3.63702 | 35544 ft | 466 kts | 103° |
| 2026-04-25 19:15 | 50.94840 | 3.68728 | 35745 ft | 466 kts | 103° |
| 2026-04-25 19:15 | 50.94156 | 3.73744 | 35941 ft | 466 kts | 103° |
| 2026-04-25 19:16 | 50.93471 | 3.78764 | 36137 ft | 466 kts | 103° |
| 2026-04-25 19:16 | 50.92792 | 3.83712 | 36311 ft | 466 kts | 103° |
| 2026-04-25 19:16 | 50.92100 | 3.88729 | 36487 ft | 466 kts | 103° |
| 2026-04-25 19:16 | 50.91407 | 3.93748 | 36662 ft | 466 kts | 103° |
| 2026-04-25 19:17 | 50.90712 | 3.98764 | 36835 ft | 466 kts | 103° |
| 2026-04-25 19:17 | 50.90017 | 4.03777 | 37002 ft | 466 kts | 103° |
| 2026-04-25 19:17 | 50.89323 | 4.08787 | 37175 ft | 466 kts | 103° |
| 2026-04-25 19:18 | 50.87920 | 4.18844 | 37217 ft | 468 kts | 103° |
| 2026-04-25 19:18 | 50.86503 | 4.28913 | 37218 ft | 469 kts | 103° |
| 2026-04-25 19:19 | 50.85081 | 4.38907 | 37219 ft | 469 kts | 103° |
| 2026-04-25 19:19 | 50.83642 | 4.48968 | 37220 ft | 469 kts | 103° |
| 2026-04-25 19:20 | 50.82212 | 4.58950 | 37226 ft | 469 kts | 103° |
| 2026-04-25 19:20 | 50.80748 | 4.69076 | 37229 ft | 469 kts | 103° |
| 2026-04-25 19:21 | 50.79279 | 4.79135 | 37232 ft | 470 kts | 103° |
| 2026-04-25 19:21 | 50.77068 | 4.94166 | 37209 ft | 470 kts | 104° |
| 2026-04-25 19:22 | 50.75583 | 5.04230 | 37217 ft | 471 kts | 104° |
| 2026-04-25 19:23 | 50.73332 | 5.19328 | 37220 ft | 471 kts | 104° |
| 2026-04-25 19:23 | 50.71076 | 5.34335 | 37198 ft | 472 kts | 104° |
| 2026-04-25 19:24 | 50.69548 | 5.44416 | 37206 ft | 472 kts | 104° |
| 2026-04-25 19:25 | 50.66455 | 5.64558 | 37212 ft | 473 kts | 104° |
| 2026-04-25 19:25 | 50.64905 | 5.74563 | 37210 ft | 473 kts | 104° |
| 2026-04-25 19:26 | 50.63333 | 5.84642 | 37211 ft | 474 kts | 104° |
| 2026-04-25 19:26 | 50.61758 | 5.94710 | 37216 ft | 474 kts | 104° |
| 2026-04-25 19:27 | 50.60703 | 6.01453 | 37205 ft | 474 kts | 104° |
| 2026-04-25 19:27 | 50.58581 | 6.14852 | 37205 ft | 474 kts | 104° |
| 2026-04-25 19:28 | 50.57237 | 6.23220 | 37205 ft | 475 kts | 104° |
| 2026-04-25 19:28 | 50.55623 | 6.33289 | 37200 ft | 475 kts | 104° |
| 2026-04-25 19:29 | 50.53734 | 6.45004 | 37194 ft | 475 kts | 104° |
| 2026-04-25 19:29 | 50.52104 | 6.55076 | 37192 ft | 476 kts | 104° |
| 2026-04-25 19:30 | 50.50743 | 6.63457 | 37199 ft | 476 kts | 104° |
| 2026-04-25 19:30 | 50.49163 | 6.73564 | 37191 ft | 477 kts | 103° |
| 2026-04-25 19:31 | 50.47354 | 6.85330 | 37190 ft | 477 kts | 103° |
| 2026-04-25 19:31 | 50.45769 | 6.95447 | 37206 ft | 477 kts | 104° |
| 2026-04-25 19:32 | 50.44428 | 7.03839 | 37202 ft | 478 kts | 103° |
| 2026-04-25 19:32 | 50.43069 | 7.12307 | 37199 ft | 478 kts | 103° |
| 2026-04-25 19:33 | 50.41181 | 7.24061 | 37198 ft | 478 kts | 103° |
| 2026-04-25 19:33 | 50.39277 | 7.35802 | 37188 ft | 478 kts | 104° |
| 2026-04-25 19:34 | 50.37900 | 7.44268 | 37200 ft | 479 kts | 103° |
| 2026-04-25 19:34 | 50.36255 | 7.54310 | 37193 ft | 479 kts | 103° |
| 2026-04-25 19:35 | 50.34595 | 7.64414 | 37185 ft | 479 kts | 103° |
| 2026-04-25 19:35 | 50.32922 | 7.74513 | 37184 ft | 480 kts | 104° |
| 2026-04-25 19:36 | 50.31235 | 7.84601 | 37193 ft | 479 kts | 104° |
| 2026-04-25 19:36 | 50.29556 | 7.94625 | 37188 ft | 480 kts | 103° |
| 2026-04-25 19:37 | 50.27854 | 8.04716 | 37174 ft | 480 kts | 103° |
| 2026-04-25 19:37 | 50.26145 | 8.14805 | 37165 ft | 480 kts | 104° |
| 2026-04-25 19:38 | 50.24432 | 8.24878 | 37162 ft | 480 kts | 104° |
| 2026-04-25 19:38 | 50.22700 | 8.34950 | 37167 ft | 480 kts | 103° |
| 2026-04-25 19:39 | 50.20969 | 8.44953 | 37156 ft | 481 kts | 104° |
| 2026-04-25 19:39 | 50.19230 | 8.54957 | 37152 ft | 481 kts | 104° |
| 2026-04-25 19:40 | 50.17482 | 8.64976 | 37148 ft | 481 kts | 104° |
| 2026-04-25 19:40 | 50.15715 | 8.75038 | 37150 ft | 481 kts | 104° |
| 2026-04-25 19:41 | 50.13951 | 8.85097 | 37149 ft | 481 kts | 104° |
| 2026-04-25 19:41 | 50.12472 | 8.93446 | 37151 ft | 481 kts | 104° |
| 2026-04-25 19:42 | 50.10386 | 9.05118 | 37155 ft | 481 kts | 104° |
| 2026-04-25 19:42 | 50.08585 | 9.15151 | 37155 ft | 481 kts | 104° |
| 2026-04-25 19:43 | 50.06770 | 9.25180 | 37159 ft | 481 kts | 104° |
| 2026-04-25 19:43 | 50.04952 | 9.35211 | 37150 ft | 482 kts | 104° |
| 2026-04-25 19:44 | 50.03126 | 9.45238 | 37133 ft | 482 kts | 104° |
| 2026-04-25 19:44 | 50.01299 | 9.55184 | 37134 ft | 481 kts | 104° |
| 2026-04-25 19:45 | 49.99451 | 9.65184 | 37146 ft | 482 kts | 104° |
| 2026-04-25 19:45 | 49.97599 | 9.75184 | 37140 ft | 482 kts | 104° |
| 2026-04-25 19:46 | 49.95738 | 9.85169 | 37140 ft | 482 kts | 104° |
| 2026-04-25 19:46 | 49.93879 | 9.95100 | 37129 ft | 482 kts | 104° |
| 2026-04-25 19:47 | 49.92001 | 10.05079 | 37147 ft | 482 kts | 104° |
| 2026-04-25 19:47 | 49.90110 | 10.15054 | 37131 ft | 482 kts | 104° |
| 2026-04-25 19:48 | 49.88206 | 10.25034 | 37116 ft | 483 kts | 104° |
| 2026-04-25 19:48 | 49.86296 | 10.35020 | 37115 ft | 483 kts | 104° |
| 2026-04-25 19:49 | 49.84704 | 10.43306 | 37115 ft | 483 kts | 104° |
| 2026-04-25 19:49 | 49.82462 | 10.54895 | 37116 ft | 483 kts | 104° |
| 2026-04-25 19:50 | 49.79450 | 10.69805 | 37106 ft | 484 kts | 106° |
| 2026-04-25 19:51 | 49.77309 | 10.79677 | 37104 ft | 484 kts | 107° |
| 2026-04-25 19:51 | 49.75160 | 10.89522 | 37115 ft | 484 kts | 107° |
| 2026-04-25 19:52 | 49.73041 | 10.99338 | 37104 ft | 485 kts | 106° |
| 2026-04-25 19:52 | 49.70908 | 11.09216 | 37097 ft | 485 kts | 106° |
| 2026-04-25 19:53 | 49.68760 | 11.19094 | 37097 ft | 485 kts | 107° |
| 2026-04-25 19:53 | 49.66597 | 11.28966 | 37081 ft | 485 kts | 107° |
| 2026-04-25 19:54 | 49.64432 | 11.38841 | 37088 ft | 486 kts | 107° |
| 2026-04-25 19:54 | 49.62258 | 11.48718 | 37054 ft | 486 kts | 107° |
| 2026-04-25 19:55 | 49.60084 | 11.58515 | 37062 ft | 486 kts | 107° |
| 2026-04-25 19:55 | 49.57890 | 11.68366 | 37066 ft | 486 kts | 107° |
| 2026-04-25 19:56 | 49.55691 | 11.78202 | 37074 ft | 486 kts | 107° |
| 2026-04-25 19:56 | 49.53476 | 11.88031 | 37074 ft | 486 kts | 107° |
| 2026-04-25 19:57 | 49.51269 | 11.97785 | 37073 ft | 486 kts | 107° |
| 2026-04-25 19:57 | 49.49044 | 12.07602 | 37071 ft | 486 kts | 107° |
| 2026-04-25 19:58 | 49.46812 | 12.17414 | 37089 ft | 486 kts | 107° |
| 2026-04-25 19:58 | 49.44554 | 12.27254 | 37073 ft | 487 kts | 107° |
| 2026-04-25 19:59 | 49.42299 | 12.37029 | 37068 ft | 487 kts | 107° |
| 2026-04-25 19:59 | 49.40042 | 12.46782 | 37064 ft | 488 kts | 107° |
| 2026-04-25 20:00 | 49.37772 | 12.56586 | 37065 ft | 488 kts | 107° |
| 2026-04-25 20:00 | 49.35485 | 12.66400 | 37071 ft | 488 kts | 108° |
| 2026-04-25 20:01 | 49.32036 | 12.81091 | 37073 ft | 488 kts | 108° |
| 2026-04-25 20:01 | 49.29740 | 12.90801 | 37069 ft | 488 kts | 108° |
| 2026-04-25 20:02 | 49.27418 | 13.00563 | 37068 ft | 488 kts | 108° |
| 2026-04-25 20:02 | 49.25099 | 13.10310 | 37064 ft | 487 kts | 108° |
| 2026-04-25 20:03 | 49.22774 | 13.20055 | 37064 ft | 488 kts | 108° |
| 2026-04-25 20:03 | 49.20435 | 13.29792 | 37063 ft | 488 kts | 108° |
| 2026-04-25 20:04 | 49.18102 | 13.39451 | 37074 ft | 487 kts | 108° |
| 2026-04-25 20:04 | 49.15746 | 13.49163 | 37075 ft | 487 kts | 108° |
| 2026-04-25 20:05 | 49.13381 | 13.58867 | 37074 ft | 488 kts | 108° |
| 2026-04-25 20:05 | 49.11013 | 13.68561 | 37073 ft | 487 kts | 109° |
| 2026-04-25 20:06 | 49.08599 | 13.78152 | 37064 ft | 488 kts | 114° |
| 2026-04-25 20:06 | 49.05588 | 13.87444 | 37066 ft | 489 kts | 116° |
| 2026-04-25 20:07 | 49.02499 | 13.96663 | 37068 ft | 488 kts | 116° |
| 2026-04-25 20:07 | 49.00947 | 14.01269 | 36923 ft | 489 kts | 116° |
| 2026-04-25 20:07 | 48.99400 | 14.05870 | 36656 ft | 488 kts | 116° |
| 2026-04-25 20:08 | 48.97855 | 14.10472 | 36393 ft | 488 kts | 116° |
| 2026-04-25 20:08 | 48.96334 | 14.15010 | 36138 ft | 488 kts | 116° |
| 2026-04-25 20:08 | 48.94795 | 14.19606 | 35894 ft | 488 kts | 116° |
| 2026-04-25 20:08 | 48.93254 | 14.24201 | 35640 ft | 488 kts | 116° |
| 2026-04-25 20:09 | 48.91704 | 14.28804 | 35392 ft | 488 kts | 116° |
| 2026-04-25 20:09 | 48.90156 | 14.33390 | 35138 ft | 489 kts | 116° |
| 2026-04-25 20:09 | 48.88588 | 14.38023 | 34897 ft | 489 kts | 116° |
| 2026-04-25 20:09 | 48.87043 | 14.42577 | 34668 ft | 489 kts | 116° |
| 2026-04-25 20:10 | 48.85484 | 14.47169 | 34417 ft | 489 kts | 116° |
| 2026-04-25 20:10 | 48.83922 | 14.51766 | 33534 ft | 493 kts | 116° |
| 2026-04-25 20:10 | 48.82361 | 14.56363 | 32407 ft | 498 kts | 116° |
| 2026-04-25 20:10 | 48.80771 | 14.61039 | 31332 ft | 500 kts | 116° |
| 2026-04-25 20:11 | 48.79171 | 14.65731 | 30161 ft | 502 kts | 116° |
| 2026-04-25 20:11 | 48.77556 | 14.70451 | 28811 ft | 505 kts | 116° |
| 2026-04-25 20:11 | 48.75937 | 14.75165 | 27581 ft | 504 kts | 116° |
| 2026-04-25 20:11 | 48.74328 | 14.79833 | 26942 ft | 494 kts | 116° |
| 2026-04-25 20:12 | 48.72744 | 14.84420 | 26131 ft | 489 kts | 116° |
| 2026-04-25 20:12 | 48.71178 | 14.88956 | 25366 ft | 484 kts | 117° |
| 2026-04-25 20:12 | 48.69649 | 14.93391 | 24618 ft | 480 kts | 117° |
| 2026-04-25 20:12 | 48.68609 | 14.96409 | 24103 ft | 477 kts | 117° |
| 2026-04-25 20:13 | 48.66581 | 15.02288 | 23044 ft | 474 kts | 117° |
| 2026-04-25 20:13 | 48.65061 | 15.06672 | 22356 ft | 468 kts | 117° |
| 2026-04-25 20:13 | 48.63551 | 15.11002 | 21668 ft | 463 kts | 117° |
| 2026-04-25 20:13 | 48.62052 | 15.15283 | 21028 ft | 458 kts | 117° |
| 2026-04-25 20:14 | 48.60569 | 15.19523 | 20405 ft | 454 kts | 117° |
| 2026-04-25 20:14 | 48.59110 | 15.23720 | 19836 ft | 449 kts | 117° |
| 2026-04-25 20:14 | 48.57687 | 15.27843 | 19503 ft | 438 kts | 117° |
| 2026-04-25 20:14 | 48.56289 | 15.31898 | 19032 ft | 433 kts | 117° |
| 2026-04-25 20:15 | 48.54924 | 15.35862 | 18526 ft | 430 kts | 117° |
| 2026-04-25 20:15 | 48.53716 | 15.39968 | 17965 ft | 427 kts | 107° |
| 2026-04-25 20:15 | 48.52811 | 15.44212 | 17382 ft | 424 kts | 107° |
| 2026-04-25 20:15 | 48.51911 | 15.48423 | 16836 ft | 420 kts | 107° |
| 2026-04-25 20:16 | 48.51015 | 15.52602 | 16296 ft | 417 kts | 107° |
| 2026-04-25 20:16 | 48.50128 | 15.56741 | 15770 ft | 414 kts | 107° |
| 2026-04-25 20:16 | 48.49249 | 15.60848 | 15250 ft | 410 kts | 107° |
| 2026-04-25 20:16 | 48.48377 | 15.64926 | 14736 ft | 407 kts | 107° |
| 2026-04-25 20:17 | 48.47508 | 15.68967 | 14230 ft | 404 kts | 107° |
| 2026-04-25 20:17 | 48.46640 | 15.72977 | 13731 ft | 401 kts | 108° |
| 2026-04-25 20:17 | 48.45778 | 15.76954 | 13137 ft | 398 kts | 108° |
| 2026-04-25 20:17 | 48.44932 | 15.80851 | 12596 ft | 395 kts | 108° |
| 2026-04-25 20:18 | 48.44083 | 15.84761 | 12056 ft | 391 kts | 108° |
| 2026-04-25 20:18 | 48.43240 | 15.88639 | 11517 ft | 387 kts | 108° |
| 2026-04-25 20:18 | 48.42405 | 15.92473 | 10973 ft | 384 kts | 108° |
| 2026-04-25 20:18 | 48.41577 | 15.96272 | 10449 ft | 380 kts | 108° |
| 2026-04-25 20:19 | 48.40759 | 16.00020 | 9802 ft | 371 kts | 108° |
| 2026-04-25 20:19 | 48.39984 | 16.03570 | 9618 ft | 343 kts | 108° |
| 2026-04-25 20:19 | 48.39266 | 16.06848 | 9433 ft | 319 kts | 108° |
| 2026-04-25 20:19 | 48.38584 | 16.09953 | 8937 ft | 308 kts | 108° |
| 2026-04-25 20:20 | 48.37924 | 16.12948 | 8322 ft | 304 kts | 108° |
| 2026-04-25 20:20 | 48.37265 | 16.15944 | 7677 ft | 300 kts | 107° |
| 2026-04-25 20:20 | 48.36610 | 16.18912 | 7074 ft | 299 kts | 107° |
| 2026-04-25 20:20 | 48.35958 | 16.21862 | 6710 ft | 296 kts | 107° |
| 2026-04-25 20:21 | 48.35310 | 16.24790 | 6326 ft | 294 kts | 107° |
| 2026-04-25 20:21 | 48.34667 | 16.27693 | 6032 ft | 291 kts | 107° |
| 2026-04-25 20:21 | 48.34027 | 16.30591 | 6013 ft | 293 kts | 107° |
| 2026-04-25 20:21 | 48.33382 | 16.33499 | 6016 ft | 294 kts | 107° |
| 2026-04-25 20:22 | 48.32732 | 16.36409 | 6014 ft | 293 kts | 107° |
| 2026-04-25 20:22 | 48.32303 | 16.38329 | 6011 ft | 293 kts | 107° |
| 2026-04-25 20:22 | 48.31446 | 16.42179 | 6012 ft | 293 kts | 107° |
| 2026-04-25 20:22 | 48.30692 | 16.45020 | 6007 ft | 293 kts | 120° |
| 2026-04-25 20:23 | 48.29533 | 16.47535 | 6012 ft | 293 kts | 126° |
| 2026-04-25 20:23 | 48.28337 | 16.50011 | 6010 ft | 293 kts | 126° |
| 2026-04-25 20:23 | 48.27139 | 16.52484 | 6010 ft | 292 kts | 126° |
| 2026-04-25 20:23 | 48.25941 | 16.54948 | 6008 ft | 292 kts | 126° |
| 2026-04-25 20:24 | 48.24737 | 16.57409 | 6009 ft | 292 kts | 126° |
| 2026-04-25 20:24 | 48.23532 | 16.59861 | 5989 ft | 292 kts | 126° |
| 2026-04-25 20:24 | 48.22335 | 16.62296 | 5605 ft | 289 kts | 126° |
| 2026-04-25 20:24 | 48.21143 | 16.64723 | 5181 ft | 288 kts | 126° |
| 2026-04-25 20:25 | 48.19976 | 16.67103 | 4769 ft | 286 kts | 126° |
| 2026-04-25 20:25 | 48.18795 | 16.69503 | 4314 ft | 287 kts | 126° |
| 2026-04-25 20:25 | 48.17619 | 16.71893 | 4026 ft | 280 kts | 126° |
| 2026-04-25 20:25 | 48.16492 | 16.74180 | 4001 ft | 268 kts | 126° |
| 2026-04-25 20:26 | 48.15390 | 16.76415 | 4009 ft | 266 kts | 126° |
| 2026-04-25 20:26 | 48.14306 | 16.78615 | 3955 ft | 264 kts | 126° |
| 2026-04-25 20:26 | 48.13193 | 16.80868 | 3324 ft | 275 kts | 126° |
| 2026-04-25 20:26 | 48.12040 | 16.83203 | 3071 ft | 283 kts | 126° |
| 2026-04-25 20:27 | 48.10874 | 16.85545 | 2992 ft | 284 kts | 126° |
| 2026-04-25 20:27 | 48.09688 | 16.87928 | 3008 ft | 286 kts | 126° |
| 2026-04-25 20:27 | 48.08509 | 16.90311 | 3005 ft | 285 kts | 126° |
| 2026-04-25 20:27 | 48.07330 | 16.92698 | 3007 ft | 285 kts | 126° |
| 2026-04-25 20:28 | 48.05972 | 16.94840 | 3006 ft | 285 kts | 147° |
| 2026-04-25 20:28 | 48.04148 | 16.95902 | 3003 ft | 281 kts | 176° |
| 2026-04-25 20:28 | 48.02279 | 16.95583 | 3000 ft | 261 kts | 210° |
| 2026-04-25 20:28 | 48.00948 | 16.94066 | 3003 ft | 227 kts | 240° |
| 2026-04-25 20:29 | 48.00330 | 16.92073 | 3003 ft | 201 kts | 265° |
| 2026-04-25 20:29 | 48.00322 | 16.90156 | 3031 ft | 177 kts | 286° |
| 2026-04-25 20:29 | 48.00744 | 16.88498 | 3015 ft | 168 kts | 299° |
| 2026-04-25 20:29 | 48.01258 | 16.86944 | 3003 ft | 166 kts | 299° |
| 2026-04-25 20:30 | 48.01770 | 16.85398 | 3002 ft | 166 kts | 299° |
| 2026-04-25 20:30 | 48.02280 | 16.83852 | 3004 ft | 166 kts | 299° |
| 2026-04-25 20:30 | 48.02790 | 16.82304 | 3005 ft | 166 kts | 299° |
| 2026-04-25 20:30 | 48.03301 | 16.80753 | 3025 ft | 167 kts | 298° |
| 2026-04-25 20:31 | 48.03814 | 16.79196 | 3029 ft | 167 kts | 298° |
| 2026-04-25 20:31 | 48.04327 | 16.77638 | 3030 ft | 167 kts | 298° |
| 2026-04-25 20:31 | 48.04835 | 16.76093 | 3030 ft | 165 kts | 298° |
| 2026-04-25 20:31 | 48.05331 | 16.74583 | 2980 ft | 164 kts | 298° |
| 2026-04-25 20:32 | 48.05833 | 16.73055 | 2828 ft | 164 kts | 298° |
| 2026-04-25 20:32 | 48.06332 | 16.71536 | 2639 ft | 162 kts | 297° |
| 2026-04-25 20:32 | 48.06827 | 16.70025 | 2429 ft | 160 kts | 298° |
| 2026-04-25 20:32 | 48.07294 | 16.68599 | 2243 ft | 143 kts | 298° |
| 2026-04-25 20:33 | 48.07716 | 16.67311 | 2059 ft | 134 kts | 298° |
| 2026-04-25 20:33 | 48.08119 | 16.66081 | 1885 ft | 130 kts | 298° |
| 2026-04-25 20:33 | 48.08499 | 16.64919 | 1720 ft | 119 kts | 297° |
| 2026-04-25 20:33 | 48.08736 | 16.64193 | 1603 ft | 116 kts | 298° |
| 2026-04-25 20:34 | 48.09217 | 16.62723 | 1329 ft | 123 kts | 296° |
| 2026-04-25 20:34 | 48.09597 | 16.61566 | 1192 ft | 124 kts | 296° |
| 2026-04-25 20:34 | 48.09986 | 16.60392 | 1096 ft | 127 kts | 296° |
| 2026-04-25 20:34 | 48.10378 | 16.59212 | 916 ft | 126 kts | 296° |
| 2026-04-25 20:35 | 48.10753 | 16.58033 | 713 ft | 125 kts | 295° |
| 2026-04-25 20:35 | 48.11131 | 16.56869 | 631 ft | 118 kts | 295° |
| 2026-04-25 20:35 | 48.11424 | 16.55965 | 620 ft | 72 kts | 296° |
| 2026-04-25 20:35 | 48.11572 | 16.55514 | 616 ft | 31 kts | 297° |
| 2026-04-25 20:36 | 48.11707 | 16.55277 | 615 ft | 29 kts | 314° |
| 2026-04-25 20:36 | 48.11804 | 16.55159 | 608 ft | 16 kts | 335° |
| 2026-04-25 20:36 | 48.11824 | 16.55149 | 617 ft | 0 kts | 344° |
| 2026-04-25 20:36 | 48.11825 | 16.55149 | 617 ft | 1 kts | 345° |
| 2026-04-25 20:37 | 48.11827 | 16.55148 | 615 ft | 0 kts | 346° |
| 2026-04-25 20:37 | 48.11828 | 16.55148 | 615 ft | 0 kts | 346° |
| 2026-04-25 20:37 | 48.11848 | 16.55144 | 619 ft | 6 kts | 354° |
| 2026-04-25 20:37 | 48.11881 | 16.55217 | 611 ft | 15 kts | 103° |
| 2026-04-25 20:38 | 48.11823 | 16.55395 | 613 ft | 23 kts | 116° |
| 2026-04-25 20:38 | 48.11745 | 16.55628 | 625 ft | 25 kts | 113° |
| 2026-04-25 20:38 | 48.11679 | 16.55845 | 617 ft | 22 kts | 115° |
| 2026-04-25 20:38 | 48.11617 | 16.56031 | 617 ft | 19 kts | 118° |
| 2026-04-25 20:39 | 48.11559 | 16.56210 | 616 ft | 18 kts | 115° |
| 2026-04-25 20:39 | 48.11502 | 16.56381 | 615 ft | 19 kts | 117° |
| 2026-04-25 20:39 | 48.11446 | 16.56550 | 616 ft | 12 kts | 112° |
| 2026-04-25 20:39 | 48.11438 | 16.56577 | 621 ft | 1 kts | 116° |
| 2026-04-25 20:40 | 48.11430 | 16.56599 | 616 ft | 3 kts | 118° |
| 2026-04-25 20:40 | 48.11399 | 16.56687 | 625 ft | 15 kts | 116° |
| 2026-04-25 20:40 | 48.11377 | 16.56805 | 616 ft | 10 kts | 70° |
| 2026-04-25 20:40 | 48.11407 | 16.56832 | 615 ft | 0 kts | 26° |
| 2026-04-25 20:41 | 48.11411 | 16.56835 | 615 ft | 1 kts | 24° |
| 2026-04-25 20:41 | 48.11416 | 16.56838 | 622 ft | 0 kts | 23° |
| 2026-04-25 20:42 | 48.11423 | 16.56842 | 621 ft | 5 kts | 22° |
| 2026-04-25 20:42 | 48.11482 | 16.56879 | 618 ft | 12 kts | 25° |
| 2026-04-25 20:42 | 48.11553 | 16.56982 | 609 ft | 17 kts | 95° |
| 2026-04-25 20:42 | 48.11512 | 16.57125 | 610 ft | 12 kts | 117° |
| 2026-04-25 20:43 | 48.11468 | 16.57158 | 621 ft | 7 kts | 195° |
| 2026-04-25 20:43 | 48.11459 | 16.57153 | 621 ft | 0 kts | 200° |
| 2026-04-25 20:43 | 48.11458 | 16.57152 | 616 ft | 1 kts | 200° |
| 2026-04-25 20:43 | 48.11452 | 16.57148 | 618 ft | 1 kts | 206° |
| 2026-04-25 20:44 | 48.11439 | 16.57137 | 618 ft | 3 kts | 209° |
| 2026-04-25 20:44 | 48.11423 | 16.57124 | 617 ft | 0 kts | 207° |
| 2026-04-25 20:44 | 48.11422 | 16.57124 | 617 ft | 0 kts | 207° |